LFBI/PIS METAR and TAF weather

Enter ICAO airport designator
Station Type Date Time Source
LFBI METAR 2019/06/27 10:00 UTC NOAA

LFBI 271000Z AUTO 09004KT 030V160 CAVOK 33/16 Q1020 NOSIG


Station Type Date Time Source
LFBI Decoded METAR 2019/06/27 10:00 UTC NOAA

Poitiers, France (LFBI) 46-35N 000-19E 120M
Jun 27, 2019 - 06:00 AM EDT / 2019.06.27 1000 UTC
Wind: from the E (090 degrees) at 5 MPH (4 KT) (direction variable):0
Visibility: greater than 7 mile(s):0
Temperature: 91 F (33 C)
Dew Point: 60 F (16 C)
Relative Humidity: 36%
Pressure (altimeter): 30.12 in. Hg (1020 hPa)
ob: LFBI 271000Z AUTO 09004KT 030V160 CAVOK 33/16 Q1020 NOSIG
cycle: 10

Station Type Date Time Source
LFBI TAF 2019/06/27 06:21 UTC NOAA

TAF LFBI 270500Z 2706/2806 08008KT CAVOK

Example: see airport list